Carlos City, Indiana
Current Conditions -  °F | °C
As of 2:15 PM on Saturday 25 Oct 2014 (Local Time) from KVES Reporting Station
Clear Clear  
Wind Chill: 72°   Ceiling: Unl
Heat Index: 72°   Visibility: 10mi
Dew Point: 52°   Wind: 15mph
Humidity: 50%   Direction: 280°W
Pressure: 29.9"   Gusts: 21mph
Location:  40.0606°N, 84.9258°W
Report Text: KVES 251815Z AUTO 28013G18KT 10SM CLR 22/11 A2990 RMK AO2
Loading
Personal Weather Stations






























Interactive Weather Map
Tropical Storm Tracking
New forecast layout! Learn more

10-Day Weather Forecast

Advertisements
Track Severe Weather on mobile